createdAt,value
2023-05-19T00:01:19.177Z,102950.59
2023-05-19T00:03:52.723Z,102939.19
2023-05-19T00:06:25.147Z,102947.19
2023-05-19T00:09:00.161Z,102944.81
2023-05-19T00:11:27.626Z,102946.16
2023-05-19T00:13:55.546Z,102943.78
2023-05-19T00:16:23.518Z,102947.13
2023-05-19T00:18:50.303Z,102931.84
2023-05-19T00:21:17.024Z,102926.34
2023-05-19T00:23:43.814Z,102930.44
2023-05-19T00:26:10.884Z,102926.03
2023-05-19T00:28:37.482Z,102924.28
2023-05-19T00:31:05.552Z,102929.91
2023-05-19T00:33:33.770Z,102919.88
2023-05-19T00:36:04.362Z,102926.09
2023-05-19T00:38:32.121Z,102918.81
2023-05-19T00:40:59.623Z,102922.28
2023-05-19T00:43:26.480Z,102927.75
2023-05-19T00:45:53.149Z,102925.38
2023-05-19T00:48:19.673Z,102918.84
2023-05-19T00:50:46.375Z,102921.56
2023-05-19T00:53:14.907Z,102926.94
2023-05-19T00:55:42.778Z,102925.38
2023-05-19T00:58:11.758Z,102920.94
2023-05-19T01:00:39.762Z,102921.91
2023-05-19T01:03:13.238Z,102919.41
2023-05-19T01:05:42.023Z,102919.28
2023-05-19T01:08:08.929Z,102925.72
2023-05-19T01:10:35.570Z,102926.09
2023-05-19T01:13:04.463Z,102925.97
2023-05-19T01:15:36.276Z,102922.66
2023-05-19T01:18:11.669Z,102930.03
2023-05-19T01:20:58.018Z,102930.28
2023-05-19T01:23:51.182Z,102923.72
2023-05-19T01:26:59.398Z,102928.16
2023-05-19T01:29:34.836Z,102918.84
2023-05-19T01:32:04.662Z,102920.50
2023-05-19T01:34:31.774Z,102916.22
2023-05-19T01:37:00.835Z,102914.75
2023-05-19T01:39:28.403Z,102913.09
2023-05-19T01:41:55.081Z,102910.72
2023-05-19T01:44:22.453Z,102912.72
2023-05-19T01:46:49.989Z,102904.28
2023-05-19T01:49:16.535Z,102901.91
2023-05-19T01:51:43.082Z,102904.16
2023-05-19T01:54:09.631Z,102909.78
2023-05-19T01:56:49.921Z,102906.78
2023-05-19T01:59:52.297Z,102894.38
2023-05-19T02:02:30.382Z,102893.06
2023-05-19T02:05:38.340Z,102894.25
2023-05-19T02:08:13.091Z,102895.19
2023-05-19T02:10:41.291Z,102891.97
2023-05-19T02:13:11.482Z,102896.38
2023-05-19T02:15:44.800Z,102896.59
2023-05-19T02:18:12.216Z,102896.88
2023-05-19T02:20:40.050Z,102895.06
2023-05-19T02:23:06.699Z,102892.81
2023-05-19T02:25:33.345Z,102894.94
2023-05-19T02:27:59.962Z,102890.75
2023-05-19T02:30:26.562Z,102893.94
2023-05-19T02:32:54.345Z,102880.63
2023-05-19T02:35:21.431Z,102888.84
2023-05-19T02:37:47.954Z,102878.47
2023-05-19T02:40:14.652Z,102886.22
2023-05-19T02:42:41.221Z,102880.81
2023-05-19T02:45:08.316Z,102880.34
2023-05-19T02:47:37.002Z,102873.09
2023-05-19T02:50:05.004Z,102870.81
2023-05-19T02:52:31.787Z,102869.47
2023-05-19T02:54:58.315Z,102874.84
2023-05-19T02:57:26.737Z,102868.78
2023-05-19T02:59:53.262Z,102868.78
2023-05-19T03:02:19.815Z,102859.44
2023-05-19T03:04:46.423Z,102861.34
2023-05-19T03:07:16.387Z,102867.06
2023-05-19T03:09:42.942Z,102857.78
2023-05-19T03:12:09.586Z,102860.00
2023-05-19T03:14:39.263Z,102858.34
2023-05-19T03:17:08.146Z,102860.00
2023-05-19T03:19:35.005Z,102854.91
2023-05-19T03:22:01.627Z,102860.25
2023-05-19T03:24:28.214Z,102859.66
2023-05-19T03:26:54.739Z,102860.59
2023-05-19T03:29:21.591Z,102855.47
2023-05-19T03:31:48.112Z,102860.19
2023-05-19T03:34:14.670Z,102856.03
2023-05-19T03:36:41.209Z,102853.69
2023-05-19T03:39:07.741Z,102856.19
2023-05-19T03:41:34.254Z,102852.34
2023-05-19T03:44:01.333Z,102851.75
2023-05-19T03:46:27.952Z,102844.13
2023-05-19T03:48:54.582Z,102853.03
2023-05-19T03:51:21.312Z,102846.56
2023-05-19T03:53:48.779Z,102851.31
2023-05-19T03:56:18.041Z,102852.84
2023-05-19T03:58:45.061Z,102853.25
2023-05-19T04:01:11.752Z,102854.69
2023-05-19T04:03:38.474Z,102860.44
2023-05-19T04:06:05.129Z,102855.53
2023-05-19T04:08:32.133Z,102858.16
2023-05-19T04:10:58.694Z,102860.53
2023-05-19T04:13:25.317Z,102855.44
2023-05-19T04:15:52.323Z,102857.56
2023-05-19T04:18:18.872Z,102855.47
2023-05-19T04:20:45.312Z,102859.53
2023-05-19T04:23:11.776Z,102854.72
2023-05-19T04:25:38.410Z,102863.19
2023-05-19T04:28:04.945Z,102861.31
2023-05-19T04:30:31.689Z,102855.25
2023-05-19T04:32:59.858Z,102865.25
2023-05-19T04:35:26.970Z,102856.22
2023-05-19T04:37:56.056Z,102868.25
2023-05-19T04:40:23.908Z,102864.44
2023-05-19T04:42:54.083Z,102866.84
2023-05-19T04:45:20.618Z,102866.16
2023-05-19T04:47:48.262Z,102865.66
2023-05-19T04:50:16.436Z,102863.88
2023-05-19T04:52:45.581Z,102865.22
2023-05-19T04:55:13.427Z,102866.66
2023-05-19T04:57:40.202Z,102874.38
2023-05-19T05:00:09.099Z,102869.75
2023-05-19T05:02:36.273Z,102869.53
2023-05-19T05:05:02.965Z,102871.91
2023-05-19T05:07:31.671Z,102871.78
2023-05-19T05:09:58.987Z,102873.34
2023-05-19T05:12:25.943Z,102873.00
2023-05-19T05:14:52.694Z,102878.84
2023-05-19T05:17:20.467Z,102877.41
2023-05-19T05:19:48.517Z,102880.53
2023-05-19T05:22:15.461Z,102883.88
2023-05-19T05:24:42.221Z,102874.22
2023-05-19T05:27:10.240Z,102874.56
2023-05-19T05:29:37.020Z,102879.00
2023-05-19T05:32:03.770Z,102879.22
2023-05-19T05:34:30.604Z,102878.53
2023-05-19T05:36:57.143Z,102882.34
2023-05-19T05:39:23.773Z,102878.63
2023-05-19T05:41:50.357Z,102874.31
2023-05-19T05:44:16.998Z,102868.59
2023-05-19T05:46:43.814Z,102883.97
2023-05-19T05:49:12.467Z,102878.72
2023-05-19T05:51:42.920Z,102882.75
2023-05-19T05:54:12.563Z,102885.34
2023-05-19T05:56:41.212Z,102886.03
2023-05-19T05:59:07.903Z,102883.00
2023-05-19T06:01:35.995Z,102866.22
2023-05-19T06:04:02.637Z,102873.34
2023-05-19T06:06:29.371Z,102882.53
2023-05-19T06:08:56.122Z,102875.59
2023-05-19T06:11:23.172Z,102882.25
2023-05-19T06:13:49.748Z,102881.50
2023-05-19T06:16:16.369Z,102877.72
2023-05-19T06:18:43.040Z,102879.69
2023-05-19T06:21:10.460Z,102878.97
2023-05-19T06:23:37.210Z,102877.91
2023-05-19T06:26:04.063Z,102877.94
2023-05-19T06:28:31.746Z,102882.25
2023-05-19T06:31:00.295Z,102874.78
2023-05-19T06:33:29.124Z,102870.09
2023-05-19T06:35:56.063Z,102879.28
2023-05-19T06:38:22.854Z,102869.38
2023-05-19T06:40:49.678Z,102864.81
2023-05-19T06:43:16.445Z,102872.31
2023-05-19T06:45:43.034Z,102860.94
2023-05-19T06:48:12.882Z,102867.75
2023-05-19T06:50:39.538Z,102872.59
2023-05-19T06:53:06.250Z,102867.47
2023-05-19T06:55:34.384Z,102863.84
2023-05-19T06:58:02.381Z,102861.59
2023-05-19T07:00:29.505Z,102873.94
2023-05-19T07:02:56.491Z,102873.91
2023-05-19T07:05:23.228Z,102872.91
2023-05-19T07:07:50.233Z,102874.81
2023-05-19T07:10:17.041Z,102881.78
2023-05-19T07:12:43.916Z,102872.31
2023-05-19T07:15:11.095Z,102875.88
2023-05-19T07:17:37.616Z,102869.97
2023-05-19T07:20:06.903Z,102867.97
2023-05-19T07:22:36.547Z,102870.97
2023-05-19T07:25:03.535Z,102860.81
2023-05-19T07:27:30.265Z,102866.47
2023-05-19T07:29:57.007Z,102862.53
2023-05-19T07:32:23.856Z,102864.97
2023-05-19T07:34:50.708Z,102863.31
2023-05-19T07:37:17.381Z,102860.66
2023-05-19T07:39:44.058Z,102867.63
2023-05-19T07:42:10.899Z,102865.44
2023-05-19T07:44:37.525Z,102863.50
2023-05-19T07:47:04.268Z,102865.53
2023-05-19T07:49:31.090Z,102862.53
2023-05-19T07:51:57.937Z,102857.84
2023-05-19T07:54:24.766Z,102858.22
2023-05-19T07:56:51.919Z,102849.16
2023-05-19T07:59:18.715Z,102852.34
2023-05-19T08:01:45.856Z,102847.44
2023-05-19T08:04:13.139Z,102847.78
2023-05-19T08:06:40.302Z,102843.16
2023-05-19T08:09:07.421Z,102842.16
2023-05-19T08:11:34.078Z,102835.94
2023-05-19T08:14:00.850Z,102835.47
2023-05-19T08:16:27.572Z,102841.84
2023-05-19T08:18:54.994Z,102836.06
2023-05-19T08:21:22.047Z,102837.75
2023-05-19T08:23:48.627Z,102827.63
2023-05-19T08:26:15.590Z,102824.16
2023-05-19T08:28:42.339Z,102827.59
2023-05-19T08:31:09.133Z,102819.47
2023-05-19T08:33:35.786Z,102825.78
2023-05-19T08:36:03.846Z,102820.00
2023-05-19T08:38:30.362Z,102819.78
2023-05-19T08:40:58.249Z,102812.16
2023-05-19T08:43:24.913Z,102814.97
2023-05-19T08:45:54.109Z,102813.63
2023-05-19T08:48:22.473Z,102808.81
2023-05-19T08:51:10.941Z,102808.59
2023-05-19T08:53:41.236Z,102812.81
2023-05-19T08:56:20.053Z,102807.34
2023-05-19T08:58:48.930Z,102795.56
2023-05-19T09:01:18.787Z,102804.59
2023-05-19T09:03:47.470Z,102800.88
2023-05-19T09:06:14.626Z,102791.28
2023-05-19T09:08:42.411Z,102791.44
2023-05-19T09:11:10.218Z,102796.09
2023-05-19T09:13:37.232Z,102788.94
2023-05-19T09:16:04.345Z,102793.25
2023-05-19T09:18:31.507Z,102787.78
2023-05-19T09:21:00.381Z,102786.59
2023-05-19T09:23:33.434Z,102791.41
2023-05-19T09:26:07.259Z,102787.66
2023-05-19T09:28:36.428Z,102782.75
2023-05-19T09:31:05.260Z,102790.69
2023-05-19T09:33:42.188Z,102782.47
2023-05-19T09:36:11.537Z,102781.66
2023-05-19T09:38:39.049Z,102778.63
2023-05-19T09:41:10.897Z,102778.94
2023-05-19T09:43:37.528Z,102787.72
2023-05-19T09:46:08.750Z,102781.53
2023-05-19T09:48:36.868Z,102780.16
2023-05-19T09:51:05.407Z,102770.94
2023-05-19T09:53:32.542Z,102772.88
2023-05-19T09:56:01.987Z,102777.75
2023-05-19T09:58:37.438Z,102776.88
2023-05-19T10:01:04.855Z,102772.31
2023-05-19T10:03:35.225Z,102783.31
2023-05-19T10:06:03.931Z,102772.13
2023-05-19T10:08:31.900Z,102770.06
2023-05-19T10:10:59.381Z,102768.81
2023-05-19T10:13:29.138Z,102767.38
2023-05-19T10:15:59.201Z,102764.22
2023-05-19T10:18:27.901Z,102757.72
2023-05-19T10:20:54.813Z,102759.84
2023-05-19T10:23:24.154Z,102751.84
2023-05-19T10:25:55.984Z,102751.47
2023-05-19T10:28:27.971Z,102752.59
2023-05-19T10:30:58.814Z,102747.41
2023-05-19T10:33:57.995Z,102745.28
2023-05-19T10:36:46.265Z,102749.97
2023-05-19T10:39:37.830Z,102738.09
2023-05-19T10:42:09.186Z,102736.91
2023-05-19T10:45:05.580Z,102732.41
2023-05-19T10:47:33.674Z,102732.63
2023-05-19T10:50:04.416Z,102732.38
2023-05-19T10:52:31.031Z,102726.94
2023-05-19T10:54:58.487Z,102730.16
2023-05-19T10:57:32.025Z,102739.28
2023-05-19T11:00:00.922Z,102734.91
2023-05-19T11:02:44.082Z,102731.25
2023-05-19T11:05:18.107Z,102732.66
2023-05-19T11:07:55.302Z,102726.38
2023-05-19T11:10:25.198Z,102722.63
2023-05-19T11:12:52.485Z,102727.06
2023-05-19T11:15:25.547Z,102726.91
2023-05-19T11:17:52.553Z,102727.69
2023-05-19T11:20:27.438Z,102730.72
2023-05-19T11:23:19.563Z,102713.97
2023-05-19T11:25:51.611Z,102709.50
2023-05-19T11:28:19.979Z,102713.16
2023-05-19T11:30:52.147Z,102711.66
2023-05-19T11:33:20.340Z,102713.88
2023-05-19T11:35:49.449Z,102700.34
2023-05-19T11:38:17.211Z,102706.56
2023-05-19T11:40:44.476Z,102701.22
2023-05-19T11:43:11.257Z,102710.09
2023-05-19T11:45:38.045Z,102700.34
2023-05-19T11:48:05.564Z,102696.88
2023-05-19T11:50:32.803Z,102691.72
2023-05-19T11:53:01.091Z,102687.81
2023-05-19T11:55:28.314Z,102693.19
2023-05-19T11:58:04.460Z,102692.16
2023-05-19T12:00:54.575Z,102695.59
2023-05-19T12:03:22.233Z,102689.63
2023-05-19T12:05:49.699Z,102695.44
2023-05-19T12:08:18.630Z,102693.00
2023-05-19T12:10:57.248Z,102697.13
2023-05-19T12:13:25.249Z,102697.53
2023-05-19T12:15:52.551Z,102692.34
2023-05-19T12:18:19.752Z,102703.25
2023-05-19T12:20:46.912Z,102692.97
2023-05-19T12:23:14.675Z,102687.84
2023-05-19T12:25:42.330Z,102694.00
2023-05-19T12:28:09.615Z,102690.63
2023-05-19T12:30:36.783Z,102681.03
2023-05-19T12:33:03.893Z,102686.22
2023-05-19T12:35:34.681Z,102679.59
2023-05-19T12:38:06.166Z,102679.59
2023-05-19T12:40:37.096Z,102675.72
2023-05-19T12:43:05.561Z,102670.97
2023-05-19T12:45:42.505Z,102664.78
2023-05-19T12:48:12.650Z,102660.09
2023-05-19T12:50:39.490Z,102659.00
2023-05-19T12:53:09.337Z,102652.00
2023-05-19T12:55:45.611Z,102656.22
2023-05-19T12:58:12.797Z,102660.38
2023-05-19T13:00:44.961Z,102656.25
2023-05-19T13:03:17.321Z,102649.78
2023-05-19T13:05:47.343Z,102652.28
2023-05-19T13:08:16.872Z,102647.22
2023-05-19T13:10:45.968Z,102645.47
2023-05-19T13:13:13.572Z,102645.84
2023-05-19T13:15:49.120Z,102642.81
2023-05-19T13:18:17.000Z,102641.72
2023-05-19T13:20:44.926Z,102650.41
2023-05-19T13:23:11.796Z,102644.91
2023-05-19T13:25:38.369Z,102643.00
2023-05-19T13:28:05.927Z,102641.13
2023-05-19T13:30:34.215Z,102643.56
2023-05-19T13:33:01.277Z,102640.81
2023-05-19T13:35:28.316Z,102634.44
2023-05-19T13:37:54.912Z,102629.94
2023-05-19T13:40:23.098Z,102634.06
2023-05-19T13:42:49.765Z,102621.63
2023-05-19T13:45:16.452Z,102616.63
2023-05-19T13:47:42.998Z,102609.50
2023-05-19T13:50:09.829Z,102612.47
2023-05-19T13:52:36.330Z,102612.72
2023-05-19T13:55:03.708Z,102617.00
2023-05-19T13:57:30.260Z,102615.19
2023-05-19T14:00:01.708Z,102620.72
2023-05-19T14:02:30.211Z,102616.41
2023-05-19T14:04:57.506Z,102617.22
2023-05-19T14:07:24.232Z,102618.66
2023-05-19T14:09:52.378Z,102611.41
2023-05-19T14:12:21.550Z,102607.81
2023-05-19T14:14:50.258Z,102610.31
2023-05-19T14:17:16.853Z,102605.16
2023-05-19T14:19:43.380Z,102612.22
2023-05-19T14:22:10.123Z,102608.91
2023-05-19T14:24:37.195Z,102604.25
2023-05-19T14:27:03.966Z,102602.66
2023-05-19T14:29:31.198Z,102603.44
2023-05-19T14:31:57.872Z,102589.75
2023-05-19T14:34:24.496Z,102601.22
2023-05-19T14:36:51.132Z,102589.06
2023-05-19T14:39:17.655Z,102593.09
2023-05-19T14:41:44.171Z,102590.66
2023-05-19T14:44:10.789Z,102584.50
2023-05-19T14:46:37.435Z,102578.75
2023-05-19T14:49:05.810Z,102581.53
2023-05-19T14:51:32.704Z,102583.97
2023-05-19T14:54:00.271Z,102589.13
2023-05-19T14:56:26.837Z,102577.41
2023-05-19T14:58:53.356Z,102582.75
2023-05-19T15:01:20.060Z,102582.84
2023-05-19T15:03:46.757Z,102578.22
2023-05-19T15:06:13.331Z,102578.38
2023-05-19T15:08:41.109Z,102578.84
2023-05-19T15:11:08.072Z,102591.31
2023-05-19T15:13:34.670Z,102583.94
2023-05-19T15:16:12.470Z,102568.56
2023-05-19T15:18:43.592Z,102569.97
2023-05-19T15:21:10.383Z,102568.47
2023-05-19T15:23:36.899Z,102567.91
2023-05-19T15:26:03.851Z,102571.53
2023-05-19T15:28:30.570Z,102570.72
2023-05-19T15:30:57.130Z,102570.66
2023-05-19T15:33:23.680Z,102567.69
2023-05-19T15:35:52.070Z,102567.09
2023-05-19T15:38:19.496Z,102567.50
2023-05-19T15:40:46.718Z,102566.47
2023-05-19T15:43:13.575Z,102561.22
2023-05-19T15:45:40.110Z,102556.97
2023-05-19T15:48:06.963Z,102566.81
2023-05-19T15:50:33.859Z,102557.50
2023-05-19T15:53:00.642Z,102552.03
2023-05-19T15:55:27.192Z,102554.03
2023-05-19T15:57:53.779Z,102558.97
2023-05-19T16:00:20.524Z,102551.00
2023-05-19T16:02:47.355Z,102550.97
2023-05-19T16:05:14.023Z,102551.88
2023-05-19T16:07:42.040Z,102553.75
2023-05-19T16:10:09.160Z,102547.78
2023-05-19T16:12:36.670Z,102538.22
2023-05-19T16:15:03.762Z,102536.03
2023-05-19T16:17:30.500Z,102544.69
2023-05-19T16:19:57.119Z,102532.56
2023-05-19T16:22:24.960Z,102537.06
2023-05-19T16:24:51.846Z,102531.88
2023-05-19T16:27:18.689Z,102528.00
2023-05-19T16:29:45.349Z,102523.31
2023-05-19T16:32:12.592Z,102527.72
2023-05-19T16:34:39.534Z,102529.31
2023-05-19T16:37:06.223Z,102519.81
2023-05-19T16:39:35.994Z,102523.59
2023-05-19T16:42:03.304Z,102528.75
2023-05-19T16:44:29.880Z,102533.16
2023-05-19T16:46:56.413Z,102525.09
2023-05-19T16:49:22.911Z,102522.91
2023-05-19T16:51:49.740Z,102525.44
2023-05-19T16:54:16.291Z,102533.81
2023-05-19T16:56:45.197Z,102525.25
2023-05-19T16:59:11.697Z,102530.63
2023-05-19T17:01:38.262Z,102519.19
2023-05-19T17:04:05.008Z,102524.69
2023-05-19T17:06:31.694Z,102532.56
2023-05-19T17:08:58.268Z,102538.06
2023-05-19T17:11:24.874Z,102536.91
2023-05-19T17:13:51.327Z,102531.22
2023-05-19T17:16:18.249Z,102536.63
2023-05-19T17:18:44.938Z,102531.22
2023-05-19T17:21:11.575Z,102533.63
2023-05-19T17:23:38.247Z,102530.84
2023-05-19T17:26:05.296Z,102535.38
2023-05-19T17:28:32.352Z,102529.03
2023-05-19T17:30:58.880Z,102532.97
2023-05-19T17:33:25.783Z,102535.56
2023-05-19T17:35:52.463Z,102531.13
2023-05-19T17:38:19.488Z,102532.66
2023-05-19T17:40:46.023Z,102540.13
2023-05-19T17:43:12.788Z,102539.50
2023-05-19T17:45:39.329Z,102531.28
2023-05-19T17:48:06.271Z,102535.75
2023-05-19T17:50:33.087Z,102534.84
2023-05-19T17:52:59.977Z,102539.78
2023-05-19T17:55:29.909Z,102545.72
2023-05-19T17:57:57.460Z,102540.81
2023-05-19T18:00:25.298Z,102539.81
2023-05-19T18:02:52.463Z,102544.25
2023-05-19T18:05:19.611Z,102543.66
2023-05-19T18:07:46.378Z,102546.53
2023-05-19T18:10:16.203Z,102543.81
2023-05-19T18:12:42.801Z,102548.53
2023-05-19T18:15:09.773Z,102544.78
2023-05-19T18:17:36.541Z,102552.09
2023-05-19T18:20:03.409Z,102553.22
2023-05-19T18:22:30.082Z,102557.69
2023-05-19T18:24:57.638Z,102562.16
2023-05-19T18:27:24.192Z,102555.78
2023-05-19T18:29:50.775Z,102559.06
2023-05-19T18:32:17.712Z,102557.56
2023-05-19T18:34:44.404Z,102563.06
2023-05-19T18:37:11.021Z,102564.25
2023-05-19T18:39:37.857Z,102569.75
2023-05-19T18:42:04.565Z,102574.19
2023-05-19T18:44:31.148Z,102569.78
2023-05-19T18:46:57.663Z,102573.97
2023-05-19T18:49:25.123Z,102571.75
2023-05-19T18:51:52.020Z,102570.78
2023-05-19T18:54:20.315Z,102563.69
2023-05-19T18:56:46.824Z,102572.41
2023-05-19T18:59:13.465Z,102569.84
2023-05-19T19:01:40.189Z,102565.28
2023-05-19T19:04:06.919Z,102575.22
2023-05-19T19:06:33.576Z,102572.66
2023-05-19T19:09:00.104Z,102579.19
2023-05-19T19:11:26.726Z,102579.19
2023-05-19T19:13:55.467Z,102583.97
2023-05-19T19:16:22.543Z,102580.19
2023-05-19T19:18:49.232Z,102582.97
2023-05-19T19:21:15.838Z,102584.38
2023-05-19T19:23:42.377Z,102589.59
2023-05-19T19:26:09.545Z,102589.69
2023-05-19T19:28:36.759Z,102590.69
2023-05-19T19:31:03.312Z,102597.19
2023-05-19T19:33:29.912Z,102607.84
2023-05-19T19:35:56.571Z,102601.88
2023-05-19T19:38:23.151Z,102604.25
2023-05-19T19:40:52.167Z,102609.59
2023-05-19T19:43:18.858Z,102608.56
2023-05-19T19:45:45.716Z,102609.22
2023-05-19T19:48:12.525Z,102620.22
2023-05-19T19:50:39.091Z,102621.25
2023-05-19T19:53:05.699Z,102622.78
2023-05-19T19:55:32.398Z,102615.72
2023-05-19T19:57:58.921Z,102622.63
2023-05-19T20:00:25.501Z,102639.91
2023-05-19T20:03:04.429Z,102634.78
2023-05-19T20:05:32.533Z,102632.84
2023-05-19T20:07:59.248Z,102633.25
2023-05-19T20:10:25.815Z,102637.06
2023-05-19T20:12:52.535Z,102641.00
2023-05-19T20:15:19.353Z,102639.22
2023-05-19T20:17:45.985Z,102640.47
2023-05-19T20:20:13.068Z,102637.91
2023-05-19T20:22:39.625Z,102651.06
2023-05-19T20:25:06.630Z,102648.13
2023-05-19T20:27:33.219Z,102650.50
2023-05-19T20:29:59.833Z,102653.16
2023-05-19T20:32:26.542Z,102655.81
2023-05-19T20:34:53.189Z,102653.97
2023-05-19T20:37:21.527Z,102652.66
2023-05-19T20:39:48.137Z,102649.72
2023-05-19T20:42:14.828Z,102654.09
2023-05-19T20:44:41.545Z,102662.94
2023-05-19T20:47:08.512Z,102663.91
2023-05-19T20:49:35.578Z,102667.44
2023-05-19T20:52:02.235Z,102672.75
2023-05-19T20:54:28.873Z,102663.47
2023-05-19T20:56:55.580Z,102661.97
2023-05-19T20:59:22.180Z,102671.63
2023-05-19T21:01:48.821Z,102671.53
2023-05-19T21:04:15.387Z,102672.50
2023-05-19T21:06:42.011Z,102669.25
2023-05-19T21:09:08.759Z,102664.94
2023-05-19T21:11:35.568Z,102674.59
2023-05-19T21:14:05.515Z,102671.28
2023-05-19T21:16:32.350Z,102661.69
2023-05-19T21:18:59.023Z,102672.97
2023-05-19T21:21:26.182Z,102679.94
2023-05-19T21:23:52.847Z,102683.06
2023-05-19T21:26:19.414Z,102678.97
2023-05-19T21:28:46.264Z,102686.56
2023-05-19T21:31:12.857Z,102686.56
2023-05-19T21:33:39.360Z,102680.09
2023-05-19T21:36:40.010Z,102677.66
2023-05-19T21:39:06.482Z,102682.78
2023-05-19T21:41:33.302Z,102684.75
2023-05-19T21:43:59.885Z,102686.25
2023-05-19T21:46:29.001Z,102686.91
2023-05-19T21:48:55.857Z,102693.84
2023-05-19T21:51:22.436Z,102692.88
2023-05-19T21:53:49.004Z,102695.50
2023-05-19T21:56:17.036Z,102696.31
2023-05-19T21:58:43.632Z,102697.63
2023-05-19T22:01:10.188Z,102693.81
2023-05-19T22:03:37.279Z,102692.81
2023-05-19T22:06:06.339Z,102685.38
2023-05-19T22:08:32.861Z,102684.03
2023-05-19T22:10:59.513Z,102689.34
2023-05-19T22:13:26.299Z,102698.41
2023-05-19T22:15:52.949Z,102692.13
2023-05-19T22:18:19.596Z,102691.59
2023-05-19T22:20:46.340Z,102686.63
2023-05-19T22:23:12.916Z,102689.28
2023-05-19T22:25:39.500Z,102686.59
2023-05-19T22:28:07.896Z,102689.19
2023-05-19T22:30:38.515Z,102689.81
2023-05-19T22:33:06.551Z,102694.44
2023-05-19T22:35:33.149Z,102705.03
2023-05-19T22:37:59.954Z,102694.91
2023-05-19T22:40:26.589Z,102698.88
2023-05-19T22:42:53.097Z,102697.22
2023-05-19T22:45:19.976Z,102694.22
2023-05-19T22:47:47.989Z,102695.81
2023-05-19T22:50:14.774Z,102691.69
2023-05-19T22:52:41.319Z,102694.16
2023-05-19T22:55:08.276Z,102696.31
2023-05-19T22:57:34.774Z,102693.66
2023-05-19T23:00:01.340Z,102691.84
2023-05-19T23:02:27.871Z,102695.13
2023-05-19T23:04:54.503Z,102695.94
2023-05-19T23:07:21.140Z,102687.63
2023-05-19T23:09:47.788Z,102697.88
2023-05-19T23:12:14.290Z,102695.41
2023-05-19T23:14:40.837Z,102689.91
2023-05-19T23:17:07.388Z,102693.00
2023-05-19T23:19:35.366Z,102688.16
2023-05-19T23:22:02.063Z,102690.75
2023-05-19T23:24:28.588Z,102691.22
2023-05-19T23:26:55.231Z,102691.38
2023-05-19T23:29:21.858Z,102692.31
2023-05-19T23:31:48.519Z,102689.31
2023-05-19T23:34:15.190Z,102694.59
2023-05-19T23:36:41.762Z,102687.09
2023-05-19T23:39:08.254Z,102685.44
2023-05-19T23:41:34.764Z,102685.63
2023-05-19T23:44:01.330Z,102678.00
2023-05-19T23:46:27.992Z,102690.66
2023-05-19T23:48:54.545Z,102686.81
2023-05-19T23:51:21.082Z,102682.16
2023-05-19T23:53:47.598Z,102682.16
2023-05-19T23:56:14.184Z,102677.31
2023-05-19T23:58:40.874Z,102682.06
